Meteo Giornale » Osservazioni meteo Iran » Ilam Airport
ore: 22:30 - Osservazioni Meteo Ilam Airport
Lat. 33° 35' N Lon. 46° 24' E Alt. 1343 metri s.l.m.
22 °C
Sereno
Temp. 24 Ore
16 °C
32 °C
Ovest/Nord-Ovest
9.3 Km/h
Dew point 5 °C
Umidità 32 %
Visibilità 10 Km
Il sole sorge alle ore 05:58
Il sole tramonta alle ore 18:50
| Data e Ora | Cielo e Fenomeni | T °C | DP °C | Um. % | Pres. hPa | Vis. km | Vento km/h | |
|---|---|---|---|---|---|---|---|---|
| Oggi h: 22:30 | Sereno | 22 | 5 | 32 | 1017 | 10 | O/NO 9.3 | |
| Oggi h: 21:30 | Sereno | 23 | 5 | 31 | 1017 | 10 | O 11.1 | |
| Oggi h: 20:30 | Sereno | 24 | 5 | 29 | 1017 | 10 | NO 9.3 | |
| Oggi h: 19:30 | Sereno | 26 | 5 | 25 | 1016 | 10 | O/NO 14.8 | |
| Oggi h: 18:30 | Sereno | 29 | 4 | 20 | 1016 | 10 | O 13 | |
| Oggi h: 17:30 | Sereno | 31 | 4 | 18 | 1016 | 10 | O/SO 14.8 | |
| Oggi h: 16:30 | Sereno | 32 | 5 | 18 | 1016 | 10 | SO 16.7 | |
| Oggi h: 15:30 | Sereno | 32 | 3 | 15 | 1016 | 10 | O 16.7 | |
| Oggi h: 14:30 | Sereno | 32 | 1 | 13 | 1016 | 10 | O/SO 9.3 | |
| Oggi h: 13:30 | Sereno | 32 | 1 | 13 | 1016 | 10 | O/SO 13 | |
| Oggi h: 12:30 | Sereno | 31 | 0 | 13 | 1016 | 10 | O 11.1 | |
| Oggi h: 11:30 | Sereno | 30 | 0 | 14 | 1016 | 10 | O 11.1 | |
| Oggi h: 10:30 | Sereno | 28 | -1 | 15 | 1017 | 10 | O/NO 9.3 | |
| Oggi h: 09:30 | Sereno | 27 | 3 | 21 | 1017 | 10 | N 5.5 | |
| Oggi h: 08:30 | Sereno | 24 | 5 | 29 | 1016 | 10 | N 5.5 | |
| Oggi h: 07:30 | Sereno | 20 | 5 | 37 | 1016 | 10 | SE 9.3 | |
| Oggi h: 06:30 | Sereno | 16 | 6 | 51 | 1016 | 10 | N 3.7 | |
| Oggi h: 06:00 | Sereno | 16 | 5 | 47 | 1016 | 10 | N 1.8 | |
| Oggi h: 05:30 | Sereno | 17 | 7 | 51 | 1016 | 10 | N 3.7 | |
| Oggi h: 04:30 | Sereno | 18 | 7 | 48 | 1016 | 10 | N 5.5 | |
| Oggi h: 03:30 | Sereno | 17 | 5 | 45 | 1016 | 10 | N 0 | |
| Oggi h: 02:30 | Sereno | 17 | 4 | 41 | 1016 | 10 | N 3.7 | |
| Oggi h: 01:30 | Sereno | 17 | 4 | 41 | 1016 | 10 | N 5.5 | |
| Oggi h: 00:30 | Sereno | 19 | 5 | 39 | 1017 | 10 | N 5.5 | |



